• Join FlightAware (Why Join?)
  • Login
  • US Flag 
09:57AM EST


 

Airport Tracker/Info


-or-


 

Live Flight TrackerFlight Track Log ✈ CTL14 ✈ 18-Apr-2013 ✈ KPWK - KOSU

Flight Track Log - Related Links

Times and Time Zones

All times are in EDT time to prevent confusion due to time zone crossing. See the CTL14 flight status page for this flight to view local times or setup timezone preferences in your user account.

Time Position Orientation Groundspeed Altitude Reporting Facility
EDT Latitude Longitude Course Direction KTS MPH feet Rate Location/Type
12:00AM 42.1500 -87.8167 66° East 159 183 2,600  Level Chicago TRACON
12:01AM 42.1533 -87.7622 85° East 154 177 3,400 720 Climbing Chicago Center
12:02AM 42.1544 -87.7042 89° East 153 176 4,100 720 Climbing Chicago Center
12:03AM 42.1603 -87.6447 82° East 157 181 4,900 660 Climbing Chicago Center
12:04AM 42.1625 -87.5825 87° East 162 186 5,500 480 Climbing Chicago Center
12:05AM 42.1642 -87.5225 88° East 161 185 5,900 480 Climbing Chicago Center
12:06AM 42.1658 -87.4622 88° East 162 186 6,500 540 Climbing Chicago Center
12:07AM 42.1672 -87.4061 88° East 153 176 7,100 540 Climbing Chicago Center
12:08AM 42.1692 -87.3569 87° East 136 157 7,700 480 Climbing Chicago Center
12:09AM 42.1697 -87.2986 89° East 131 151 8,100 360 Climbing Chicago Center
12:10AM 42.1694 -87.2519 90° East 127 146 8,500 300 Climbing Chicago Center
12:11AM 42.1700 -87.2047 89° East 126 145 8,800 180 Climbing Chicago Center
12:12AM 42.1572 -87.1764 121° Southeast 96 110 8,900 60 Climbing Chicago Center
12:13AM 42.1428 -87.1372 116° Southeast 112 129 9,000 60 Climbing Chicago Center
12:14AM 42.1267 -87.0981 119° Southeast 120 138 9,100  Climbing Chicago Center
12:15AM 42.1081 -87.0556 121° Southeast 128 147 9,000  Descending Chicago Center
12:16AM 42.0894 -87.0156 122° Southeast 127 146 9,100  Climbing Chicago Center
12:17AM 42.0700 -86.9725 121° Southeast 133 153 9,100  Level Chicago Center
12:18AM 42.0500 -86.9303 123° Southeast 135 155 9,200  Climbing Chicago Center
12:19AM 42.0306 -86.8858 120° Southeast 137 158 9,100  Descending Chicago Center
12:20AM 42.0061 -86.8319 121° Southeast 140 161 9,200  Climbing Chicago Center
12:21AM 41.9850 -86.7886 123° Southeast 140 161 9,200  Level Chicago Center
12:22AM 41.9642 -86.7433 122° Southeast 142 163 9,200 -120 Level Chicago Center
12:23AM 41.9428 -86.7000 124° Southeast 140 161 9,000 -120 Descending Chicago Center
12:24AM 41.9244 -86.6597 121° Southeast 140 161 9,000 60 Level Chicago Center
12:25AM 41.9031 -86.6131 122° Southeast 145 167 9,200 60 Climbing Chicago Center
12:26AM 41.8822 -86.5686 122° Southeast 143 165 9,200  Level Chicago Center
12:27AM 41.8567 -86.5150 123° Southeast 142 163 9,200 -120 Level Chicago Center
12:28AM 41.8356 -86.4703 122° Southeast 142 163 9,000  Descending Chicago Center
12:29AM 41.8136 -86.4272 124° Southeast 141 162 9,200  Climbing Chicago Center
12:30AM 41.7906 -86.3847 126° Southeast 141 162 9,000 -120 Descending Chicago Center
12:31AM 41.7656 -86.3375 125° Southeast 152 175 9,000  Level Chicago Center
12:32AM 41.7428 -86.2892 122° Southeast 154 177 9,000  Level Chicago Center
12:33AM 41.7183 -86.2419 125° Southeast 155 178 9,100  Climbing Chicago Center
12:34AM 41.6947 -86.1933 123° Southeast 156 180 9,100  Level Chicago Center
12:35AM 41.6725 -86.1431 121° Southeast 158 182 9,100 -60 Level Chicago Center
12:36AM 41.6492 -86.0944 123° Southeast 157 181 9,000 -120 Descending Chicago Center
12:37AM 41.6261 -86.0467 123° Southeast 155 178 8,900 -60 Descending Chicago Center
12:38AM 41.6028 -85.9953 121° Southeast 160 184 8,900  Level Chicago Center
12:39AM 41.5808 -85.9428 119° Southeast 161 185 8,900  Level Chicago Center
12:40AM 41.5531 -85.8853 123° Southeast 157 181 8,900  Level Chicago Center
12:41AM 41.5297 -85.8375 123° Southeast 154 177 9,000  Climbing Chicago Center
12:42AM 41.5061 -85.7919 125° Southeast 150 173 9,000 -60 Level Chicago Center
12:43AM 41.4842 -85.7464 123° Southeast 148 170 8,900 -60 Descending Chicago Center
12:44AM 41.4611 -85.7011 124° Southeast 148 170 8,900  Level Chicago Center
12:45AM 41.4381 -85.6542 123° Southeast 151 174 9,000 60 Climbing Chicago Center
12:46AM 41.4139 -85.6103 126° Southeast 148 170 9,100  Climbing Chicago Center
12:47AM 41.3900 -85.5625 124° Southeast 156 180 9,000  Descending Chicago Center
12:48AM 41.3681 -85.5169 123° Southeast 150 173 9,100 60 Climbing Chicago Center
12:49AM 41.3431 -85.4753 129° Southeast 147 169 9,200  Climbing Chicago Center
12:50AM 41.3219 -85.4306 122° Southeast 145 167 9,100 -60 Descending Chicago Center
12:51AM 41.3006 -85.3911 126° Southeast 139 160 9,100 -60 Level Chicago Center
12:52AM 41.2775 -85.3492 126° Southeast 139 160 9,000 -60 Descending Chicago Center
12:53AM 41.2519 -85.2983 124° Southeast 139 160 9,000  Level Chicago Center
12:54AM 41.2311 -85.2542 122° Southeast 140 161 9,000 60 Level Chicago Center
12:55AM 41.2133 -85.2103 118° Southeast 138 159 9,200  Climbing Chicago Center
12:56AM 41.1922 -85.1686 124° Southeast 137 158 9,100 -120 Descending Chicago Center
12:57AM 41.1694 -85.1258 125° Southeast 139 160 9,000 -120 Descending Chicago Center
12:58AM 41.1478 -85.0831 124° Southeast 140 161 8,900  Descending Chicago Center
12:59AM 41.1272 -85.0428 124° Southeast 136 157 9,000  Climbing Chicago Center
01:00AM 41.1067 -85.0031 124° Southeast 133 153 9,000 -60 Level Chicago Center
01:01AM 41.0856 -84.9622 124° Southeast 134 154 8,900 -60 Descending Chicago Center
01:02AM 41.0633 -84.9222 126° Southeast 134 154 8,900  Level Chicago Center
01:03AM 41.0414 -84.8817 126° Southeast 135 155 8,900  Level Chicago Center
01:04AM 41.0197 -84.8406 125° Southeast 136 157 8,900  Level Chicago Center
01:05AM 40.9983 -84.7972 123° Southeast 138 159 8,900  Level Chicago Center
01:07AM 40.9617 -84.7269 125° Southeast 138 159 9,000  Climbing Indianapolis Center
01:07AM 40.9550 -84.7136 124° Southeast 138 159 8,900 -120 Descending Chicago Center
01:09AM 40.9325 -84.6719 126° Southeast 139 160 8,900  Level Chicago Center
01:10AM 40.9053 -84.6278 129° Southeast  Level FlightAware Approximate
01:11AM 40.8719 -84.5511 129° Southeast 148 170 9,000  Level Indianapolis Center
01:12AM 40.8611 -84.5317 126° Southeast 144 166 9,000 -120 Level Chicago Center
01:13AM 40.8383 -84.4869 124° Southeast 146 168 8,900 -60 Descending Chicago Center
01:14AM 40.8150 -84.4428 125° Southeast 147 169 8,900  Level Chicago Center
01:15AM 40.7917 -84.3986 125° Southeast 147 169 8,900  Level Chicago Center
01:16AM 40.7681 -84.3553 126° Southeast 147 169 8,900 60 Level Chicago Center
01:16AM 40.7547 -84.3281 123° Southeast 150 173 9,000 60 Climbing Indianapolis Center
01:17AM 40.7333 -84.2828 122° Southeast 145 167 9,000 -60 Level Indianapolis Center
01:18AM 40.7075 -84.2425 130° Southeast 144 166 8,900  Descending Indianapolis Center
01:19AM 40.6836 -84.1989 126° Southeast 146 168 9,000 -60 Climbing Indianapolis Center
01:20AM 40.6600 -84.1564 126° Southeast 143 165 8,800 -420 Descending Indianapolis Center
01:21AM 40.6322 -84.1081 127° Southeast 158 182 8,200 -660 Descending Indianapolis Center
01:22AM 40.6097 -84.0708 129° Southeast 179 206 7,700 -720 Descending Indianapolis Center
01:22AM 40.6033 -84.0544 117° Southeast 174 200 7,500 -720 Descending Indianapolis Center
01:23AM 40.5844 -84.0206 126° Southeast 181 208 7,100 -600 Descending Indianapolis Center
01:23AM 40.5739 -84.0000 124° Southeast 180 207 6,900 -720 Descending Indianapolis Center
01:24AM 40.5528 -83.9672 130° Southeast 176 203 6,400 -600 Descending Indianapolis Center
01:24AM 40.5433 -83.9506 127° Southeast 175 201 6,300 -420 Descending Indianapolis Center
01:25AM 40.5231 -83.9167 128° Southeast 172 198 6,000 -420 Descending Indianapolis Center
01:25AM 40.5150 -83.8992 121° Southeast 172 198 5,900 -420 Descending Indianapolis Center
01:26AM 40.4956 -83.8664 128° Southeast 167 192 5,600 -420 Descending Indianapolis Center
01:26AM 40.4883 -83.8489 118° Southeast 168 193 5,500 -420 Descending Indianapolis Center
01:27AM 40.4697 -83.8192 129° Southeast 164 189 5,200 -540 Descending Indianapolis Center
01:27AM 40.4614 -83.7994 119° Southeast 165 190 5,000 -300 Descending Indianapolis Center
01:28AM 40.4442 -83.7692 127° Southeast 160 184 4,900 -120 Descending Indianapolis Center
01:28AM 40.4353 -83.7528 125° Southeast 159 183 4,900  Level Indianapolis Center
01:29AM 40.4203 -83.7250 125° Southeast 152 175 4,900  Level Indianapolis Center
01:29AM 40.4131 -83.7075 118° Southeast 151 174 4,900 60 Level Indianapolis Center
01:30AM 40.3983 -83.6811 126° Southeast 141 162 5,000  Climbing Indianapolis Center
01:30AM 40.3903 -83.6644 122° Southeast 144 166 4,900 -240 Descending Indianapolis Center
01:31AM 40.3742 -83.6372 128° Southeast 145 167 4,800 -240 Descending Indianapolis Center
01:31AM 40.3661 -83.6203 122° Southeast 147 169 4,700 -180 Descending Indianapolis Center
01:32AM 40.3486 -83.5875 125° Southeast 151 174 4,600 -300 Descending Indianapolis Center
01:32AM 40.3414 -83.5742 125° Southeast 151 174 4,400 -300 Descending Indianapolis Center
01:33AM 40.3228 -83.5403 126° Southeast 156 180 4,300 -300 Descending Indianapolis Center
01:33AM 40.3169 -83.5278 121° Southeast 154 177 4,100 -300 Descending Indianapolis Center
01:34AM 40.2986 -83.4964 127° Southeast 153 176 4,000 -300 Descending Indianapolis Center
01:34AM 40.2917 -83.4811 121° Southeast 154 177 3,800 -300 Descending Indianapolis Center
01:35AM 40.2731 -83.4467 125° Southeast 154 177 3,700 -300 Descending Indianapolis Center
01:35AM 40.2675 -83.4342 120° Southeast 154 177 3,500 -300 Descending Indianapolis Center
01:36AM 40.2492 -83.4000 125° Southeast 154 177 3,400 -240 Descending Indianapolis Center
01:36AM 40.2444 -83.3908 124° Southeast 153 176 3,300 -360 Descending Indianapolis Center
01:38AM 40.2182 -83.3364 122° Southeast  Level FlightAware Approximate
01:45AM 40.0798 -83.0732 123° Southeast  Level Estimated
01:46AM 40.0798 -83.0732 123° Southeast  Level Estimated
01:47AM 40.0798 -83.0732 123° Southeast  Level Estimated